sensor_id;sensor_type;location;lat;lon;timestamp;P1;durP1;ratioP1;P2;durP2;ratioP2
11348;SDS011;5729;43.570;27.826;2023-04-24T00:00:15;10.40;;;5.53;;
11348;SDS011;5729;43.570;27.826;2023-04-24T00:02:42;15.38;;;5.80;;
11348;SDS011;5729;43.570;27.826;2023-04-24T00:05:13;10.18;;;5.55;;
11348;SDS011;5729;43.570;27.826;2023-04-24T00:07:39;12.48;;;5.70;;
11348;SDS011;5729;43.570;27.826;2023-04-24T00:10:06;8.60;;;5.00;;
11348;SDS011;5729;43.570;27.826;2023-04-24T00:12:32;11.90;;;5.35;;
11348;SDS011;5729;43.570;27.826;2023-04-24T00:14:57;7.85;;;5.07;;
11348;SDS011;5729;43.570;27.826;2023-04-24T00:17:23;14.68;;;5.18;;
11348;SDS011;5729;43.570;27.826;2023-04-24T00:19:48;22.33;;;6.43;;
11348;SDS011;5729;43.570;27.826;2023-04-24T00:22:16;17.83;;;5.65;;
11348;SDS011;5729;43.570;27.826;2023-04-24T00:24:42;12.57;;;6.03;;
11348;SDS011;5729;43.570;27.826;2023-04-24T00:27:07;16.67;;;5.95;;
11348;SDS011;5729;43.570;27.826;2023-04-24T00:29:33;12.10;;;5.90;;
11348;SDS011;5729;43.570;27.826;2023-04-24T00:31:58;14.15;;;6.28;;
11348;SDS011;5729;43.570;27.826;2023-04-24T00:34:24;14.38;;;6.25;;
11348;SDS011;5729;43.570;27.826;2023-04-24T00:36:50;12.20;;;5.95;;
11348;SDS011;5729;43.570;27.826;2023-04-24T00:39:18;14.43;;;5.88;;
11348;SDS011;5729;43.570;27.826;2023-04-24T00:41:43;6.88;;;5.32;;
11348;SDS011;5729;43.570;27.826;2023-04-24T00:44:10;10.82;;;5.22;;
11348;SDS011;5729;43.570;27.826;2023-04-24T00:46:36;9.65;;;5.22;;
11348;SDS011;5729;43.570;27.826;2023-04-24T00:49:02;13.57;;;5.63;;
11348;SDS011;5729;43.570;27.826;2023-04-24T00:51:29;15.23;;;5.80;;
11348;SDS011;5729;43.570;27.826;2023-04-24T00:53:55;10.82;;;5.40;;
11348;SDS011;5729;43.570;27.826;2023-04-24T00:56:21;6.40;;;5.10;;
11348;SDS011;5729;43.570;27.826;2023-04-24T00:58:46;8.70;;;5.57;;
11348;SDS011;5729;43.570;27.826;2023-04-24T01:01:12;7.78;;;5.18;;
11348;SDS011;5729;43.570;27.826;2023-04-24T01:03:38;9.50;;;4.95;;
11348;SDS011;5729;43.570;27.826;2023-04-24T01:06:04;7.40;;;5.10;;
11348;SDS011;5729;43.570;27.826;2023-04-24T01:08:30;8.10;;;4.43;;
11348;SDS011;5729;43.570;27.826;2023-04-24T01:10:56;10.02;;;4.43;;
11348;SDS011;5729;43.570;27.826;2023-04-24T01:13:23;8.50;;;5.10;;
11348;SDS011;5729;43.570;27.826;2023-04-24T01:15:49;8.23;;;4.80;;
11348;SDS011;5729;43.570;27.826;2023-04-24T01:18:15;7.55;;;5.13;;
11348;SDS011;5729;43.570;27.826;2023-04-24T01:20:40;11.07;;;4.60;;
11348;SDS011;5729;43.570;27.826;2023-04-24T01:23:08;7.15;;;4.90;;
11348;SDS011;5729;43.570;27.826;2023-04-24T01:25:34;10.13;;;5.00;;
11348;SDS011;5729;43.570;27.826;2023-04-24T01:28:00;6.15;;;4.63;;
11348;SDS011;5729;43.570;27.826;2023-04-24T01:30:26;7.03;;;4.95;;
11348;SDS011;5729;43.570;27.826;2023-04-24T01:32:52;6.45;;;4.25;;
11348;SDS011;5729;43.570;27.826;2023-04-24T01:35:18;9.55;;;4.63;;
11348;SDS011;5729;43.570;27.826;2023-04-24T01:37:45;8.63;;;4.70;;
11348;SDS011;5729;43.570;27.826;2023-04-24T01:40:10;6.75;;;4.65;;
11348;SDS011;5729;43.570;27.826;2023-04-24T01:42:36;7.65;;;4.78;;
11348;SDS011;5729;43.570;27.826;2023-04-24T01:45:03;6.00;;;4.68;;
11348;SDS011;5729;43.570;27.826;2023-04-24T01:47:30;6.93;;;4.63;;
11348;SDS011;5729;43.570;27.826;2023-04-24T01:49:57;9.48;;;4.57;;
11348;SDS011;5729;43.570;27.826;2023-04-24T01:52:23;13.30;;;5.20;;
11348;SDS011;5729;43.570;27.826;2023-04-24T01:54:48;9.73;;;4.88;;
11348;SDS011;5729;43.570;27.826;2023-04-24T01:57:14;13.63;;;5.50;;
11348;SDS011;5729;43.570;27.826;2023-04-24T01:59:41;9.55;;;5.22;;
11348;SDS011;5729;43.570;27.826;2023-04-24T02:02:06;12.45;;;5.20;;
11348;SDS011;5729;43.570;27.826;2023-04-24T02:04:31;7.63;;;4.95;;
11348;SDS011;5729;43.570;27.826;2023-04-24T02:06:58;7.75;;;4.97;;
11348;SDS011;5729;43.570;27.826;2023-04-24T02:09:23;7.13;;;5.03;;
11348;SDS011;5729;43.570;27.826;2023-04-24T02:11:49;10.00;;;4.88;;
11348;SDS011;5729;43.570;27.826;2023-04-24T02:14:14;10.15;;;5.43;;
11348;SDS011;5729;43.570;27.826;2023-04-24T02:16:40;8.45;;;4.85;;
11348;SDS011;5729;43.570;27.826;2023-04-24T02:19:05;8.15;;;5.00;;
11348;SDS011;5729;43.570;27.826;2023-04-24T02:21:31;8.43;;;5.75;;
11348;SDS011;5729;43.570;27.826;2023-04-24T02:23:57;12.48;;;5.57;;
11348;SDS011;5729;43.570;27.826;2023-04-24T02:26:22;13.65;;;5.05;;
11348;SDS011;5729;43.570;27.826;2023-04-24T02:28:48;6.90;;;5.20;;
11348;SDS011;5729;43.570;27.826;2023-04-24T02:31:13;13.82;;;5.40;;
11348;SDS011;5729;43.570;27.826;2023-04-24T02:33:39;9.98;;;5.78;;
11348;SDS011;5729;43.570;27.826;2023-04-24T02:36:05;9.27;;;4.78;;
11348;SDS011;5729;43.570;27.826;2023-04-24T02:38:30;13.15;;;5.13;;
11348;SDS011;5729;43.570;27.826;2023-04-24T02:40:56;7.10;;;4.65;;
11348;SDS011;5729;43.570;27.826;2023-04-24T02:43:21;8.43;;;4.93;;
11348;SDS011;5729;43.570;27.826;2023-04-24T02:45:47;6.50;;;5.30;;
11348;SDS011;5729;43.570;27.826;2023-04-24T02:48:12;9.77;;;5.30;;
11348;SDS011;5729;43.570;27.826;2023-04-24T02:50:38;12.63;;;5.03;;
11348;SDS011;5729;43.570;27.826;2023-04-24T02:53:03;9.45;;;5.15;;
11348;SDS011;5729;43.570;27.826;2023-04-24T02:55:28;13.90;;;4.85;;
11348;SDS011;5729;43.570;27.826;2023-04-24T02:57:54;8.75;;;4.88;;
11348;SDS011;5729;43.570;27.826;2023-04-24T03:00:19;8.07;;;4.43;;
11348;SDS011;5729;43.570;27.826;2023-04-24T03:02:45;9.48;;;4.70;;
11348;SDS011;5729;43.570;27.826;2023-04-24T03:05:11;8.60;;;4.88;;
11348;SDS011;5729;43.570;27.826;2023-04-24T03:07:37;9.68;;;4.47;;
11348;SDS011;5729;43.570;27.826;2023-04-24T03:10:03;8.07;;;4.95;;
11348;SDS011;5729;43.570;27.826;2023-04-24T03:12:30;8.18;;;5.13;;
11348;SDS011;5729;43.570;27.826;2023-04-24T03:14:56;10.05;;;5.20;;
11348;SDS011;5729;43.570;27.826;2023-04-24T03:17:21;8.25;;;4.50;;
11348;SDS011;5729;43.570;27.826;2023-04-24T03:19:47;11.27;;;4.90;;
11348;SDS011;5729;43.570;27.826;2023-04-24T03:22:12;9.82;;;4.65;;
11348;SDS011;5729;43.570;27.826;2023-04-24T03:24:37;11.18;;;5.00;;
11348;SDS011;5729;43.570;27.826;2023-04-24T03:27:03;12.23;;;5.38;;
11348;SDS011;5729;43.570;27.826;2023-04-24T03:29:28;12.15;;;5.40;;
11348;SDS011;5729;43.570;27.826;2023-04-24T03:31:54;6.72;;;5.05;;
11348;SDS011;5729;43.570;27.826;2023-04-24T03:34:19;12.45;;;5.20;;
11348;SDS011;5729;43.570;27.826;2023-04-24T03:36:45;11.48;;;5.03;;
11348;SDS011;5729;43.570;27.826;2023-04-24T03:39:12;14.70;;;5.38;;
11348;SDS011;5729;43.570;27.826;2023-04-24T03:41:38;9.40;;;6.00;;
11348;SDS011;5729;43.570;27.826;2023-04-24T03:44:03;7.50;;;5.10;;
11348;SDS011;5729;43.570;27.826;2023-04-24T03:46:29;5.88;;;4.55;;
11348;SDS011;5729;43.570;27.826;2023-04-24T03:48:54;12.98;;;4.70;;
11348;SDS011;5729;43.570;27.826;2023-04-24T03:51:20;10.57;;;5.15;;
11348;SDS011;5729;43.570;27.826;2023-04-24T03:53:45;8.18;;;4.88;;
11348;SDS011;5729;43.570;27.826;2023-04-24T03:56:11;11.32;;;5.30;;
11348;SDS011;5729;43.570;27.826;2023-04-24T03:58:36;10.25;;;5.72;;
11348;SDS011;5729;43.570;27.826;2023-04-24T04:01:02;9.82;;;5.20;;
11348;SDS011;5729;43.570;27.826;2023-04-24T04:03:27;12.48;;;5.47;;
11348;SDS011;5729;43.570;27.826;2023-04-24T04:05:53;13.38;;;4.63;;
11348;SDS011;5729;43.570;27.826;2023-04-24T04:08:19;11.93;;;4.90;;
11348;SDS011;5729;43.570;27.826;2023-04-24T04:10:44;12.63;;;5.32;;
11348;SDS011;5729;43.570;27.826;2023-04-24T04:13:10;7.30;;;4.70;;
11348;SDS011;5729;43.570;27.826;2023-04-24T04:15:35;10.40;;;5.00;;
11348;SDS011;5729;43.570;27.826;2023-04-24T04:18:01;19.70;;;6.18;;
11348;SDS011;5729;43.570;27.826;2023-04-24T04:20:27;19.35;;;6.03;;
11348;SDS011;5729;43.570;27.826;2023-04-24T04:22:52;13.27;;;5.25;;
11348;SDS011;5729;43.570;27.826;2023-04-24T04:25:17;11.50;;;4.95;;
11348;SDS011;5729;43.570;27.826;2023-04-24T04:27:44;13.05;;;5.00;;
11348;SDS011;5729;43.570;27.826;2023-04-24T04:30:13;11.77;;;5.25;;
11348;SDS011;5729;43.570;27.826;2023-04-24T04:32:39;12.90;;;5.00;;
11348;SDS011;5729;43.570;27.826;2023-04-24T04:35:05;18.90;;;5.38;;
11348;SDS011;5729;43.570;27.826;2023-04-24T04:37:34;10.02;;;4.90;;
11348;SDS011;5729;43.570;27.826;2023-04-24T04:39:59;13.10;;;5.30;;
11348;SDS011;5729;43.570;27.826;2023-04-24T04:42:25;14.25;;;5.10;;
11348;SDS011;5729;43.570;27.826;2023-04-24T04:44:52;13.32;;;4.30;;
11348;SDS011;5729;43.570;27.826;2023-04-24T04:47:18;13.23;;;4.70;;
11348;SDS011;5729;43.570;27.826;2023-04-24T04:49:48;9.57;;;4.80;;
11348;SDS011;5729;43.570;27.826;2023-04-24T04:52:13;11.75;;;4.57;;
11348;SDS011;5729;43.570;27.826;2023-04-24T04:54:39;11.57;;;5.10;;
11348;SDS011;5729;43.570;27.826;2023-04-24T04:57:05;12.63;;;5.10;;
11348;SDS011;5729;43.570;27.826;2023-04-24T04:59:30;12.63;;;5.60;;
11348;SDS011;5729;43.570;27.826;2023-04-24T05:01:56;8.18;;;4.57;;
11348;SDS011;5729;43.570;27.826;2023-04-24T05:04:21;8.30;;;4.70;;
11348;SDS011;5729;43.570;27.826;2023-04-24T05:06:47;11.77;;;5.05;;
11348;SDS011;5729;43.570;27.826;2023-04-24T05:09:12;12.95;;;4.68;;
11348;SDS011;5729;43.570;27.826;2023-04-24T05:11:38;11.00;;;4.63;;
11348;SDS011;5729;43.570;27.826;2023-04-24T05:14:03;16.95;;;4.50;;
11348;SDS011;5729;43.570;27.826;2023-04-24T05:16:29;15.50;;;5.22;;
11348;SDS011;5729;43.570;27.826;2023-04-24T05:18:55;11.95;;;4.22;;
11348;SDS011;5729;43.570;27.826;2023-04-24T05:21:21;12.50;;;4.85;;
11348;SDS011;5729;43.570;27.826;2023-04-24T05:23:46;15.43;;;5.32;;
11348;SDS011;5729;43.570;27.826;2023-04-24T05:26:12;12.95;;;4.80;;
11348;SDS011;5729;43.570;27.826;2023-04-24T05:28:38;10.93;;;4.28;;
11348;SDS011;5729;43.570;27.826;2023-04-24T05:31:04;6.45;;;3.90;;
11348;SDS011;5729;43.570;27.826;2023-04-24T05:33:29;8.13;;;4.40;;
11348;SDS011;5729;43.570;27.826;2023-04-24T05:35:55;10.13;;;4.00;;
11348;SDS011;5729;43.570;27.826;2023-04-24T05:38:21;12.82;;;3.90;;
11348;SDS011;5729;43.570;27.826;2023-04-24T05:40:46;19.02;;;4.85;;
11348;SDS011;5729;43.570;27.826;2023-04-24T05:43:12;12.98;;;4.50;;
11348;SDS011;5729;43.570;27.826;2023-04-24T05:45:38;8.85;;;3.78;;
11348;SDS011;5729;43.570;27.826;2023-04-24T05:48:03;13.70;;;4.32;;
11348;SDS011;5729;43.570;27.826;2023-04-24T05:50:29;4.97;;;3.90;;
11348;SDS011;5729;43.570;27.826;2023-04-24T05:52:55;9.30;;;4.10;;
11348;SDS011;5729;43.570;27.826;2023-04-24T05:55:23;7.70;;;4.68;;
11348;SDS011;5729;43.570;27.826;2023-04-24T05:57:49;12.07;;;4.97;;
11348;SDS011;5729;43.570;27.826;2023-04-24T06:00:14;11.68;;;4.22;;
11348;SDS011;5729;43.570;27.826;2023-04-24T06:02:40;8.40;;;3.85;;
11348;SDS011;5729;43.570;27.826;2023-04-24T06:05:06;8.90;;;4.07;;
11348;SDS011;5729;43.570;27.826;2023-04-24T06:07:33;8.48;;;3.58;;
11348;SDS011;5729;43.570;27.826;2023-04-24T06:09:59;9.30;;;3.75;;
11348;SDS011;5729;43.570;27.826;2023-04-24T06:12:25;11.85;;;4.38;;
11348;SDS011;5729;43.570;27.826;2023-04-24T06:14:51;10.98;;;3.38;;
11348;SDS011;5729;43.570;27.826;2023-04-24T06:17:16;11.73;;;3.65;;
11348;SDS011;5729;43.570;27.826;2023-04-24T06:19:42;10.48;;;3.58;;
11348;SDS011;5729;43.570;27.826;2023-04-24T06:22:07;15.13;;;3.50;;
11348;SDS011;5729;43.570;27.826;2023-04-24T06:24:33;9.85;;;3.03;;
11348;SDS011;5729;43.570;27.826;2023-04-24T06:27:00;8.00;;;3.50;;
11348;SDS011;5729;43.570;27.826;2023-04-24T06:29:26;6.95;;;3.78;;
11348;SDS011;5729;43.570;27.826;2023-04-24T06:31:52;9.27;;;3.85;;
11348;SDS011;5729;43.570;27.826;2023-04-24T06:34:17;9.05;;;3.55;;
11348;SDS011;5729;43.570;27.826;2023-04-24T06:36:43;5.05;;;2.58;;
11348;SDS011;5729;43.570;27.826;2023-04-24T06:39:08;12.23;;;3.30;;
11348;SDS011;5729;43.570;27.826;2023-04-24T06:41:34;6.18;;;3.05;;
11348;SDS011;5729;43.570;27.826;2023-04-24T06:43:59;7.43;;;2.92;;
11348;SDS011;5729;43.570;27.826;2023-04-24T06:46:25;7.05;;;3.75;;
11348;SDS011;5729;43.570;27.826;2023-04-24T06:48:52;7.80;;;2.95;;
11348;SDS011;5729;43.570;27.826;2023-04-24T06:51:24;4.43;;;3.28;;
11348;SDS011;5729;43.570;27.826;2023-04-24T06:53:53;5.30;;;3.58;;
11348;SDS011;5729;43.570;27.826;2023-04-24T06:56:21;6.03;;;3.40;;
11348;SDS011;5729;43.570;27.826;2023-04-24T06:58:47;10.27;;;3.38;;
11348;SDS011;5729;43.570;27.826;2023-04-24T07:01:12;4.90;;;3.53;;
11348;SDS011;5729;43.570;27.826;2023-04-24T07:03:38;7.05;;;3.17;;
11348;SDS011;5729;43.570;27.826;2023-04-24T07:06:04;9.23;;;3.40;;
11348;SDS011;5729;43.570;27.826;2023-04-24T07:08:30;5.80;;;3.53;;
11348;SDS011;5729;43.570;27.826;2023-04-24T07:10:55;6.90;;;3.50;;
11348;SDS011;5729;43.570;27.826;2023-04-24T07:13:22;7.18;;;3.88;;
11348;SDS011;5729;43.570;27.826;2023-04-24T07:15:48;7.68;;;3.38;;
11348;SDS011;5729;43.570;27.826;2023-04-24T07:18:15;10.82;;;3.75;;
11348;SDS011;5729;43.570;27.826;2023-04-24T07:20:42;12.77;;;3.92;;
11348;SDS011;5729;43.570;27.826;2023-04-24T07:23:07;8.02;;;3.60;;
11348;SDS011;5729;43.570;27.826;2023-04-24T07:25:33;5.50;;;3.10;;
11348;SDS011;5729;43.570;27.826;2023-04-24T07:27:58;9.23;;;3.20;;
11348;SDS011;5729;43.570;27.826;2023-04-24T07:30:24;10.82;;;3.60;;
11348;SDS011;5729;43.570;27.826;2023-04-24T07:32:50;7.00;;;3.55;;
11348;SDS011;5729;43.570;27.826;2023-04-24T07:35:15;8.10;;;3.70;;
11348;SDS011;5729;43.570;27.826;2023-04-24T07:37:41;6.28;;;3.17;;
11348;SDS011;5729;43.570;27.826;2023-04-24T07:40:11;4.65;;;3.58;;
11348;SDS011;5729;43.570;27.826;2023-04-24T07:42:37;5.93;;;3.28;;
11348;SDS011;5729;43.570;27.826;2023-04-24T07:45:03;9.73;;;3.55;;
11348;SDS011;5729;43.570;27.826;2023-04-24T07:47:29;7.50;;;3.60;;
11348;SDS011;5729;43.570;27.826;2023-04-24T07:49:55;7.07;;;3.47;;
11348;SDS011;5729;43.570;27.826;2023-04-24T07:52:20;6.80;;;3.38;;
11348;SDS011;5729;43.570;27.826;2023-04-24T07:54:46;5.90;;;3.25;;
11348;SDS011;5729;43.570;27.826;2023-04-24T07:57:11;5.28;;;2.90;;
11348;SDS011;5729;43.570;27.826;2023-04-24T07:59:37;7.22;;;3.67;;
11348;SDS011;5729;43.570;27.826;2023-04-24T08:02:02;4.97;;;2.70;;
11348;SDS011;5729;43.570;27.826;2023-04-24T08:04:27;9.85;;;3.33;;
11348;SDS011;5729;43.570;27.826;2023-04-24T08:06:53;13.18;;;3.30;;
11348;SDS011;5729;43.570;27.826;2023-04-24T08:09:18;8.43;;;3.60;;
11348;SDS011;5729;43.570;27.826;2023-04-24T08:11:44;7.88;;;3.80;;
11348;SDS011;5729;43.570;27.826;2023-04-24T08:14:10;8.35;;;3.40;;
11348;SDS011;5729;43.570;27.826;2023-04-24T08:16:37;16.35;;;3.72;;
11348;SDS011;5729;43.570;27.826;2023-04-24T08:19:02;6.45;;;3.83;;
11348;SDS011;5729;43.570;27.826;2023-04-24T08:21:28;11.18;;;3.50;;
11348;SDS011;5729;43.570;27.826;2023-04-24T08:23:54;10.15;;;3.03;;
11348;SDS011;5729;43.570;27.826;2023-04-24T08:26:19;5.60;;;3.30;;
11348;SDS011;5729;43.570;27.826;2023-04-24T08:28:45;6.63;;;3.20;;
11348;SDS011;5729;43.570;27.826;2023-04-24T08:31:10;4.55;;;2.90;;
11348;SDS011;5729;43.570;27.826;2023-04-24T08:33:36;8.38;;;3.83;;
11348;SDS011;5729;43.570;27.826;2023-04-24T08:36:05;8.93;;;3.22;;
11348;SDS011;5729;43.570;27.826;2023-04-24T08:38:30;11.13;;;3.40;;
11348;SDS011;5729;43.570;27.826;2023-04-24T08:40:58;13.50;;;3.33;;
11348;SDS011;5729;43.570;27.826;2023-04-24T08:43:25;7.00;;;3.20;;
11348;SDS011;5729;43.570;27.826;2023-04-24T08:45:51;8.20;;;3.30;;
11348;SDS011;5729;43.570;27.826;2023-04-24T08:48:17;9.90;;;3.38;;
11348;SDS011;5729;43.570;27.826;2023-04-24T08:50:43;12.32;;;3.17;;
11348;SDS011;5729;43.570;27.826;2023-04-24T08:53:09;9.63;;;2.90;;
11348;SDS011;5729;43.570;27.826;2023-04-24T08:55:35;12.65;;;3.05;;
11348;SDS011;5729;43.570;27.826;2023-04-24T08:58:02;5.57;;;3.05;;
11348;SDS011;5729;43.570;27.826;2023-04-24T09:00:28;14.55;;;2.92;;
11348;SDS011;5729;43.570;27.826;2023-04-24T09:02:55;6.47;;;2.63;;
11348;SDS011;5729;43.570;27.826;2023-04-24T09:05:21;6.10;;;2.88;;
11348;SDS011;5729;43.570;27.826;2023-04-24T09:07:55;8.50;;;3.35;;
11348;SDS011;5729;43.570;27.826;2023-04-24T09:10:23;7.93;;;3.20;;
11348;SDS011;5729;43.570;27.826;2023-04-24T09:12:52;5.38;;;3.00;;
11348;SDS011;5729;43.570;27.826;2023-04-24T09:15:19;11.15;;;3.28;;
11348;SDS011;5729;43.570;27.826;2023-04-24T09:17:45;6.38;;;2.80;;
11348;SDS011;5729;43.570;27.826;2023-04-24T09:20:11;5.45;;;2.90;;
11348;SDS011;5729;43.570;27.826;2023-04-24T09:22:37;8.05;;;2.80;;
11348;SDS011;5729;43.570;27.826;2023-04-24T09:25:06;7.75;;;2.97;;
11348;SDS011;5729;43.570;27.826;2023-04-24T09:27:33;3.35;;;2.70;;
11348;SDS011;5729;43.570;27.826;2023-04-24T09:30:00;5.28;;;2.80;;
11348;SDS011;5729;43.570;27.826;2023-04-24T09:32:26;5.57;;;2.60;;
11348;SDS011;5729;43.570;27.826;2023-04-24T09:37:34;6.55;;;3.03;;
11348;SDS011;5729;43.570;27.826;2023-04-24T09:40:11;8.52;;;2.63;;
11348;SDS011;5729;43.570;27.826;2023-04-24T09:42:57;7.20;;;3.25;;
11348;SDS011;5729;43.570;27.826;2023-04-24T09:45:44;8.57;;;3.53;;
11348;SDS011;5729;43.570;27.826;2023-04-24T09:48:09;12.85;;;3.22;;
11348;SDS011;5729;43.570;27.826;2023-04-24T09:50:35;4.20;;;2.50;;
11348;SDS011;5729;43.570;27.826;2023-04-24T09:53:02;8.38;;;3.08;;
11348;SDS011;5729;43.570;27.826;2023-04-24T09:55:28;3.90;;;2.70;;
11348;SDS011;5729;43.570;27.826;2023-04-24T09:57:55;13.70;;;2.75;;
11348;SDS011;5729;43.570;27.826;2023-04-24T10:00:22;6.10;;;2.75;;
11348;SDS011;5729;43.570;27.826;2023-04-24T10:02:50;6.95;;;2.85;;
11348;SDS011;5729;43.570;27.826;2023-04-24T10:05:19;8.35;;;3.15;;
11348;SDS011;5729;43.570;27.826;2023-04-24T10:07:48;8.68;;;3.03;;
11348;SDS011;5729;43.570;27.826;2023-04-24T10:10:14;4.95;;;2.60;;
11348;SDS011;5729;43.570;27.826;2023-04-24T10:12:39;10.35;;;2.47;;
11348;SDS011;5729;43.570;27.826;2023-04-24T10:15:06;10.57;;;3.13;;
11348;SDS011;5729;43.570;27.826;2023-04-24T10:17:32;7.72;;;2.78;;
11348;SDS011;5729;43.570;27.826;2023-04-24T10:19:59;6.45;;;2.80;;
11348;SDS011;5729;43.570;27.826;2023-04-24T10:22:26;20.00;;;2.90;;
11348;SDS011;5729;43.570;27.826;2023-04-24T10:24:54;18.30;;;3.40;;
11348;SDS011;5729;43.570;27.826;2023-04-24T10:27:21;9.88;;;2.97;;
11348;SDS011;5729;43.570;27.826;2023-04-24T10:29:48;9.35;;;2.90;;
11348;SDS011;5729;43.570;27.826;2023-04-24T10:32:17;6.13;;;3.03;;
11348;SDS011;5729;43.570;27.826;2023-04-24T10:34:42;6.90;;;2.75;;
11348;SDS011;5729;43.570;27.826;2023-04-24T10:37:08;12.30;;;2.90;;
11348;SDS011;5729;43.570;27.826;2023-04-24T10:39:33;6.45;;;2.92;;
11348;SDS011;5729;43.570;27.826;2023-04-24T10:42:00;7.07;;;2.60;;
11348;SDS011;5729;43.570;27.826;2023-04-24T10:44:27;21.25;;;4.00;;
11348;SDS011;5729;43.570;27.826;2023-04-24T10:47:01;35.38;;;4.15;;
11348;SDS011;5729;43.570;27.826;2023-04-24T10:49:30;7.00;;;3.17;;
11348;SDS011;5729;43.570;27.826;2023-04-24T10:52:00;7.90;;;3.25;;
11348;SDS011;5729;43.570;27.826;2023-04-24T10:54:28;5.63;;;2.90;;
11348;SDS011;5729;43.570;27.826;2023-04-24T11:02:42;10.88;;;3.30;;
11348;SDS011;5729;43.570;27.826;2023-04-24T11:05:14;10.65;;;2.20;;
11348;SDS011;5729;43.570;27.826;2023-04-24T11:16:21;7.57;;;2.70;;
11348;SDS011;5729;43.570;27.826;2023-04-24T11:18:50;6.43;;;2.78;;
11348;SDS011;5729;43.570;27.826;2023-04-24T11:21:28;7.20;;;3.13;;
11348;SDS011;5729;43.570;27.826;2023-04-24T11:23:57;8.55;;;3.30;;
11348;SDS011;5729;43.570;27.826;2023-04-24T11:26:22;14.85;;;3.20;;
11348;SDS011;5729;43.570;27.826;2023-04-24T11:28:55;6.85;;;2.67;;
11348;SDS011;5729;43.570;27.826;2023-04-24T11:31:38;6.78;;;2.67;;
11348;SDS011;5729;43.570;27.826;2023-04-24T11:34:09;5.53;;;2.45;;
11348;SDS011;5729;43.570;27.826;2023-04-24T11:36:39;5.88;;;2.80;;
11348;SDS011;5729;43.570;27.826;2023-04-24T11:39:05;4.72;;;2.60;;
11348;SDS011;5729;43.570;27.826;2023-04-24T11:41:33;9.43;;;2.80;;
11348;SDS011;5729;43.570;27.826;2023-04-24T11:44:00;6.82;;;2.67;;
11348;SDS011;5729;43.570;27.826;2023-04-24T11:46:27;3.55;;;2.42;;
11348;SDS011;5729;43.570;27.826;2023-04-24T11:48:53;5.57;;;2.55;;
11348;SDS011;5729;43.570;27.826;2023-04-24T11:51:19;3.88;;;2.25;;
11348;SDS011;5729;43.570;27.826;2023-04-24T11:53:44;10.15;;;2.65;;
11348;SDS011;5729;43.570;27.826;2023-04-24T11:56:10;5.15;;;2.45;;
11348;SDS011;5729;43.570;27.826;2023-04-24T11:58:36;10.25;;;2.83;;
11348;SDS011;5729;43.570;27.826;2023-04-24T12:01:03;5.97;;;2.63;;
11348;SDS011;5729;43.570;27.826;2023-04-24T12:03:29;8.73;;;2.85;;
11348;SDS011;5729;43.570;27.826;2023-04-24T12:06:08;5.25;;;2.50;;
11348;SDS011;5729;43.570;27.826;2023-04-24T12:08:35;6.32;;;2.42;;
11348;SDS011;5729;43.570;27.826;2023-04-24T12:11:01;5.00;;;2.92;;
11348;SDS011;5729;43.570;27.826;2023-04-24T12:13:28;2.72;;;2.38;;
11348;SDS011;5729;43.570;27.826;2023-04-24T12:15:54;8.63;;;2.60;;
11348;SDS011;5729;43.570;27.826;2023-04-24T12:18:24;11.63;;;2.72;;
11348;SDS011;5729;43.570;27.826;2023-04-24T12:20:49;7.75;;;2.60;;
11348;SDS011;5729;43.570;27.826;2023-04-24T12:23:15;3.17;;;2.10;;
11348;SDS011;5729;43.570;27.826;2023-04-24T12:25:41;5.57;;;2.45;;
11348;SDS011;5729;43.570;27.826;2023-04-24T12:28:14;7.53;;;2.60;;
11348;SDS011;5729;43.570;27.826;2023-04-24T12:30:40;5.38;;;2.25;;
11348;SDS011;5729;43.570;27.826;2023-04-24T12:33:09;2.78;;;2.20;;
11348;SDS011;5729;43.570;27.826;2023-04-24T12:35:34;11.70;;;3.00;;
11348;SDS011;5729;43.570;27.826;2023-04-24T12:38:10;11.80;;;2.95;;
11348;SDS011;5729;43.570;27.826;2023-04-24T12:40:38;6.70;;;2.58;;
11348;SDS011;5729;43.570;27.826;2023-04-24T12:43:13;10.13;;;3.03;;
11348;SDS011;5729;43.570;27.826;2023-04-24T12:45:40;2.90;;;1.90;;
11348;SDS011;5729;43.570;27.826;2023-04-24T12:48:06;6.00;;;2.80;;
11348;SDS011;5729;43.570;27.826;2023-04-24T12:50:31;6.57;;;2.55;;
11348;SDS011;5729;43.570;27.826;2023-04-24T12:52:57;6.63;;;2.42;;
11348;SDS011;5729;43.570;27.826;2023-04-24T12:55:22;2.88;;;2.33;;
11348;SDS011;5729;43.570;27.826;2023-04-24T12:57:47;5.75;;;2.72;;
11348;SDS011;5729;43.570;27.826;2023-04-24T13:00:13;7.38;;;3.13;;
11348;SDS011;5729;43.570;27.826;2023-04-24T13:02:39;4.18;;;3.03;;
11348;SDS011;5729;43.570;27.826;2023-04-24T13:05:05;5.43;;;2.80;;
11348;SDS011;5729;43.570;27.826;2023-04-24T13:07:31;6.10;;;3.17;;
11348;SDS011;5729;43.570;27.826;2023-04-24T13:09:56;3.85;;;2.28;;
11348;SDS011;5729;43.570;27.826;2023-04-24T13:12:22;4.82;;;2.60;;
11348;SDS011;5729;43.570;27.826;2023-04-24T13:14:51;8.63;;;2.80;;
11348;SDS011;5729;43.570;27.826;2023-04-24T13:17:17;8.18;;;2.80;;
11348;SDS011;5729;43.570;27.826;2023-04-24T13:19:43;9.55;;;2.67;;
11348;SDS011;5729;43.570;27.826;2023-04-24T13:22:10;4.70;;;2.67;;
11348;SDS011;5729;43.570;27.826;2023-04-24T13:24:37;7.40;;;2.42;;
11348;SDS011;5729;43.570;27.826;2023-04-24T13:27:03;9.23;;;2.70;;
11348;SDS011;5729;43.570;27.826;2023-04-24T13:29:29;3.40;;;2.30;;
11348;SDS011;5729;43.570;27.826;2023-04-24T13:31:54;6.40;;;2.45;;
11348;SDS011;5729;43.570;27.826;2023-04-24T13:34:22;8.38;;;2.78;;
11348;SDS011;5729;43.570;27.826;2023-04-24T13:36:49;5.60;;;2.67;;
11348;SDS011;5729;43.570;27.826;2023-04-24T13:39:16;6.25;;;2.05;;
11348;SDS011;5729;43.570;27.826;2023-04-24T13:41:42;11.48;;;2.70;;
11348;SDS011;5729;43.570;27.826;2023-04-24T13:44:08;4.68;;;2.25;;
11348;SDS011;5729;43.570;27.826;2023-04-24T13:46:34;7.30;;;2.83;;
11348;SDS011;5729;43.570;27.826;2023-04-24T13:49:01;6.25;;;2.95;;
11348;SDS011;5729;43.570;27.826;2023-04-24T13:51:27;4.68;;;2.45;;
11348;SDS011;5729;43.570;27.826;2023-04-24T13:53:53;8.65;;;2.38;;
11348;SDS011;5729;43.570;27.826;2023-04-24T13:56:19;7.65;;;2.83;;
11348;SDS011;5729;43.570;27.826;2023-04-24T13:58:45;8.40;;;2.90;;
11348;SDS011;5729;43.570;27.826;2023-04-24T14:01:10;6.03;;;2.15;;
11348;SDS011;5729;43.570;27.826;2023-04-24T14:03:37;5.70;;;3.03;;
11348;SDS011;5729;43.570;27.826;2023-04-24T14:06:02;7.45;;;2.40;;
11348;SDS011;5729;43.570;27.826;2023-04-24T14:08:28;8.18;;;2.70;;
11348;SDS011;5729;43.570;27.826;2023-04-24T14:10:53;3.45;;;2.20;;
11348;SDS011;5729;43.570;27.826;2023-04-24T14:13:19;9.23;;;2.47;;
11348;SDS011;5729;43.570;27.826;2023-04-24T14:15:45;6.53;;;2.42;;
11348;SDS011;5729;43.570;27.826;2023-04-24T14:18:10;5.32;;;2.20;;
11348;SDS011;5729;43.570;27.826;2023-04-24T14:20:36;9.02;;;2.20;;
11348;SDS011;5729;43.570;27.826;2023-04-24T14:23:01;4.68;;;2.10;;
11348;SDS011;5729;43.570;27.826;2023-04-24T14:25:27;9.63;;;2.90;;
11348;SDS011;5729;43.570;27.826;2023-04-24T14:27:53;9.75;;;2.65;;
11348;SDS011;5729;43.570;27.826;2023-04-24T14:30:18;5.07;;;2.70;;
11348;SDS011;5729;43.570;27.826;2023-04-24T14:32:44;5.50;;;2.50;;
11348;SDS011;5729;43.570;27.826;2023-04-24T14:35:09;7.63;;;2.70;;
11348;SDS011;5729;43.570;27.826;2023-04-24T14:37:35;8.88;;;2.90;;
11348;SDS011;5729;43.570;27.826;2023-04-24T14:40:01;8.70;;;2.53;;
11348;SDS011;5729;43.570;27.826;2023-04-24T14:42:27;7.57;;;2.83;;
11348;SDS011;5729;43.570;27.826;2023-04-24T14:44:53;3.70;;;2.22;;
11348;SDS011;5729;43.570;27.826;2023-04-24T14:47:19;10.88;;;2.75;;
11348;SDS011;5729;43.570;27.826;2023-04-24T14:49:46;5.32;;;2.53;;
11348;SDS011;5729;43.570;27.826;2023-04-24T14:52:15;11.07;;;2.88;;
11348;SDS011;5729;43.570;27.826;2023-04-24T14:54:41;9.52;;;2.75;;